createdAt,value
2018-08-28T00:01:40.211Z,1.47
2018-08-28T00:04:07.740Z,1.50
2018-08-28T00:06:35.374Z,1.97
2018-08-28T00:09:03.332Z,1.40
2018-08-28T00:11:30.892Z,1.53
2018-08-28T00:13:58.505Z,1.33
2018-08-28T00:16:26.092Z,1.70
2018-08-28T00:18:53.624Z,1.50
2018-08-28T00:21:21.196Z,1.60
2018-08-28T00:23:48.767Z,1.60
2018-08-28T00:26:16.334Z,1.67
2018-08-28T00:28:43.857Z,2.10
2018-08-28T00:31:11.426Z,2.30
2018-08-28T00:33:39.018Z,2.30
2018-08-28T00:36:06.600Z,1.60
2018-08-28T00:38:34.104Z,1.80
2018-08-28T00:41:01.732Z,1.67
2018-08-28T00:43:29.270Z,1.80
2018-08-28T00:45:56.876Z,2.03
2018-08-28T00:48:24.382Z,1.80
2018-08-28T00:50:51.940Z,1.90
2018-08-28T00:53:19.458Z,2.23
2018-08-28T00:55:47.008Z,1.80
2018-08-28T00:58:14.548Z,1.30
2018-08-28T01:00:42.093Z,1.57
2018-08-28T01:03:09.622Z,1.70
2018-08-28T01:05:37.145Z,1.40
2018-08-28T01:08:04.801Z,2.23
2018-08-28T01:10:32.515Z,1.77
2018-08-28T01:13:00.030Z,2.17
2018-08-28T01:15:27.538Z,1.30
2018-08-28T01:17:55.069Z,1.57
2018-08-28T01:20:22.603Z,1.20
2018-08-28T01:22:50.141Z,1.70
2018-08-28T01:25:17.677Z,1.53
2018-08-28T01:27:45.221Z,1.60
2018-08-28T01:30:12.769Z,1.63
2018-08-28T01:32:40.345Z,1.60
2018-08-28T01:35:07.923Z,1.57
2018-08-28T01:37:35.449Z,1.60
2018-08-28T01:40:03.110Z,1.87
2018-08-28T01:42:30.643Z,1.80
2018-08-28T01:44:58.207Z,2.10
2018-08-28T01:47:25.793Z,2.20
2018-08-28T01:49:53.327Z,1.80
2018-08-28T01:52:21.091Z,2.13
2018-08-28T01:54:48.801Z,1.67
2018-08-28T01:57:16.307Z,1.80
2018-08-28T01:59:43.899Z,1.50
2018-08-28T02:02:11.403Z,1.60
2018-08-28T02:04:39.339Z,1.80
2018-08-28T02:07:06.912Z,2.53
2018-08-28T02:09:34.450Z,2.03
2018-08-28T02:12:01.980Z,2.17
2018-08-28T02:14:29.539Z,1.70
2018-08-28T02:16:57.077Z,2.00
2018-08-28T02:19:24.618Z,2.17
2018-08-28T02:21:52.160Z,2.17
2018-08-28T02:24:19.712Z,2.23
2018-08-28T02:26:47.322Z,1.77
2018-08-28T02:29:14.846Z,1.93
2018-08-28T02:31:42.361Z,2.10
2018-08-28T02:34:10.231Z,1.90
2018-08-28T02:36:38.025Z,2.40
2018-08-28T02:39:08.180Z,2.33
2018-08-28T02:41:35.738Z,1.70
2018-08-28T02:44:03.290Z,1.80
2018-08-28T02:46:30.788Z,2.50
2018-08-28T02:48:58.322Z,1.90
2018-08-28T02:51:25.870Z,2.37
2018-08-28T02:53:53.398Z,2.10
2018-08-28T02:56:21.068Z,2.27
2018-08-28T02:58:48.499Z,2.40
2018-08-28T03:01:16.019Z,2.77
2018-08-28T03:03:43.554Z,2.50
2018-08-28T03:06:11.258Z,2.00
2018-08-28T03:08:38.796Z,1.90
2018-08-28T03:11:06.379Z,2.43
2018-08-28T03:13:33.990Z,1.83
2018-08-28T03:16:01.660Z,2.40
2018-08-28T03:18:29.299Z,2.57
2018-08-28T03:20:56.856Z,2.10
2018-08-28T03:23:24.374Z,2.10
2018-08-28T03:25:51.924Z,2.20
2018-08-28T03:28:19.433Z,2.53
2018-08-28T03:30:47.015Z,1.63
2018-08-28T03:33:14.541Z,2.60
2018-08-28T03:35:42.077Z,1.90
2018-08-28T03:38:09.637Z,2.67
2018-08-28T03:40:37.192Z,2.50
2018-08-28T03:43:04.797Z,2.80
2018-08-28T03:45:32.341Z,2.30
2018-08-28T03:47:59.889Z,2.43
2018-08-28T03:50:27.479Z,2.10
2018-08-28T03:52:55.080Z,2.43
2018-08-28T03:55:22.617Z,2.53
2018-08-28T03:57:50.143Z,2.70
2018-08-28T04:00:17.662Z,5.03
2018-08-28T04:02:45.214Z,3.87
2018-08-28T04:05:12.757Z,2.90
2018-08-28T04:07:40.403Z,3.00
2018-08-28T04:10:08.009Z,2.63
2018-08-28T04:12:35.577Z,2.53
2018-08-28T04:15:03.151Z,2.10
2018-08-28T04:17:35.343Z,3.63
2018-08-28T04:20:02.981Z,2.97
2018-08-28T04:22:30.567Z,2.27
2018-08-28T04:24:58.128Z,2.70
2018-08-28T04:27:25.684Z,3.13
2018-08-28T04:29:53.308Z,3.20
2018-08-28T04:32:21.358Z,4.40
2018-08-28T04:34:48.949Z,3.73
2018-08-28T04:37:16.463Z,4.20
2018-08-28T04:39:44.046Z,3.20
2018-08-28T04:42:11.687Z,3.83
2018-08-28T04:44:39.253Z,3.10
2018-08-28T04:47:06.917Z,3.47
2018-08-28T04:49:34.472Z,2.70
2018-08-28T04:52:01.992Z,3.50
2018-08-28T04:54:29.542Z,3.40
2018-08-28T04:56:57.081Z,3.67
2018-08-28T04:59:24.626Z,2.73
2018-08-28T05:01:52.213Z,2.00
2018-08-28T05:04:19.760Z,3.10
2018-08-28T05:06:47.305Z,3.40
2018-08-28T05:09:14.891Z,2.93
2018-08-28T05:11:42.435Z,2.70
2018-08-28T05:14:10.046Z,2.97
2018-08-28T05:16:37.585Z,2.90
2018-08-28T05:19:05.508Z,3.03
2018-08-28T05:21:33.099Z,3.13
2018-08-28T05:24:00.653Z,3.23
2018-08-28T05:26:28.183Z,3.17
2018-08-28T05:28:55.735Z,2.63
2018-08-28T05:31:23.280Z,2.87
2018-08-28T05:33:50.833Z,2.70
2018-08-28T05:36:18.369Z,2.87
2018-08-28T05:38:45.944Z,2.53
2018-08-28T05:41:13.523Z,2.90
2018-08-28T05:43:41.106Z,3.30
2018-08-28T05:46:08.721Z,2.93
2018-08-28T05:48:36.270Z,2.37
2018-08-28T05:51:03.873Z,2.70
2018-08-28T05:53:31.427Z,3.07
2018-08-28T05:55:59.042Z,3.00
2018-08-28T05:58:26.601Z,3.10
2018-08-28T06:00:54.148Z,2.77
2018-08-28T06:03:21.849Z,2.47
2018-08-28T06:05:49.358Z,3.60
2018-08-28T06:08:16.933Z,3.60
2018-08-28T06:10:44.582Z,2.80
2018-08-28T06:13:12.146Z,3.40
2018-08-28T06:15:39.742Z,3.27
2018-08-28T06:18:07.303Z,2.73
2018-08-28T06:20:34.865Z,2.97
2018-08-28T06:23:02.567Z,3.33
2018-08-28T06:25:30.102Z,3.40
2018-08-28T06:27:57.654Z,2.87
2018-08-28T06:30:25.186Z,4.53
2018-08-28T06:32:52.864Z,4.27
2018-08-28T06:35:20.516Z,3.57
2018-08-28T06:37:48.110Z,4.10
2018-08-28T06:40:15.675Z,3.83
2018-08-28T06:42:43.225Z,3.60
2018-08-28T06:45:10.778Z,3.30
2018-08-28T06:47:38.348Z,4.00
2018-08-28T06:50:06.806Z,3.67
2018-08-28T06:52:34.364Z,3.10
2018-08-28T06:55:01.977Z,3.00
2018-08-28T06:57:29.664Z,3.40
2018-08-28T06:59:57.331Z,3.03
2018-08-28T07:02:25.006Z,3.80
2018-08-28T07:04:52.490Z,3.70
2018-08-28T07:07:20.142Z,3.90
2018-08-28T07:09:47.713Z,3.73
2018-08-28T07:12:15.262Z,3.80
2018-08-28T07:14:42.821Z,4.27
2018-08-28T07:17:10.376Z,2.97
2018-08-28T07:19:37.917Z,4.70
2018-08-28T07:22:05.539Z,4.20
2018-08-28T07:24:33.109Z,3.77
2018-08-28T07:27:00.663Z,3.47
2018-08-28T07:29:28.250Z,4.17
2018-08-28T07:31:55.813Z,4.20
2018-08-28T07:34:23.309Z,4.27
2018-08-28T07:36:50.835Z,5.07
2018-08-28T07:39:18.415Z,4.37
2018-08-28T07:41:45.925Z,4.73
2018-08-28T07:44:13.459Z,5.00
2018-08-28T07:46:41.024Z,5.03
2018-08-28T07:49:08.553Z,5.03
2018-08-28T07:51:36.163Z,5.07
2018-08-28T07:54:03.770Z,5.10
2018-08-28T07:56:31.297Z,4.40
2018-08-28T07:58:58.870Z,4.50
2018-08-28T08:01:26.427Z,4.90
2018-08-28T08:03:54.012Z,4.63
2018-08-28T08:06:21.585Z,4.70
2018-08-28T08:08:49.119Z,6.00
2018-08-28T08:11:16.661Z,5.10
2018-08-28T08:13:44.223Z,5.60
2018-08-28T08:16:11.844Z,5.30
2018-08-28T08:18:39.379Z,5.40
2018-08-28T08:21:07.043Z,5.33
2018-08-28T08:23:34.571Z,5.90
2018-08-28T08:26:02.148Z,5.73
2018-08-28T08:28:29.653Z,4.90
2018-08-28T08:30:57.255Z,5.03
2018-08-28T08:33:24.845Z,5.20
2018-08-28T08:35:52.454Z,5.73
2018-08-28T08:38:20.057Z,6.10
2018-08-28T08:40:47.596Z,5.70
2018-08-28T08:43:15.120Z,5.70
2018-08-28T08:45:42.665Z,6.10
2018-08-28T08:48:10.188Z,5.63
2018-08-28T08:50:37.749Z,6.50
2018-08-28T08:53:05.350Z,5.87
2018-08-28T08:55:32.916Z,5.60
2018-08-28T08:58:00.459Z,5.80
2018-08-28T09:00:28.030Z,5.50
2018-08-28T09:02:55.573Z,6.40
2018-08-28T09:05:23.136Z,5.63
2018-08-28T09:07:50.698Z,5.63
2018-08-28T09:10:18.240Z,5.60
2018-08-28T09:12:45.820Z,5.90
2018-08-28T09:15:13.358Z,5.30
2018-08-28T09:17:40.918Z,5.70
2018-08-28T09:20:08.552Z,6.23
2018-08-28T09:22:36.177Z,6.00
2018-08-28T09:25:03.760Z,5.67
2018-08-28T09:27:31.327Z,5.80
2018-08-28T09:29:58.973Z,6.17
2018-08-28T09:32:26.683Z,5.43
2018-08-28T09:34:54.110Z,4.70
2018-08-28T09:37:21.642Z,5.47
2018-08-28T09:39:49.209Z,5.87
2018-08-28T09:42:16.743Z,5.40
2018-08-28T09:44:44.316Z,5.47
2018-08-28T09:47:11.937Z,5.10
2018-08-28T09:49:39.483Z,5.10
2018-08-28T09:52:07.071Z,5.20
2018-08-28T09:54:34.618Z,5.13
2018-08-28T09:57:02.196Z,6.20
2018-08-28T09:59:29.730Z,6.07
2018-08-28T10:01:57.310Z,5.97
2018-08-28T10:04:24.962Z,5.63
2018-08-28T10:06:52.530Z,4.87
2018-08-28T10:09:20.052Z,5.40
2018-08-28T10:11:47.615Z,5.63
2018-08-28T10:14:15.166Z,6.10
2018-08-28T10:16:42.695Z,5.60
2018-08-28T10:19:10.232Z,5.73
2018-08-28T10:21:38.107Z,5.97
2018-08-28T10:24:05.881Z,5.67
2018-08-28T10:26:33.465Z,5.40
2018-08-28T10:29:01.050Z,5.00
2018-08-28T10:31:28.807Z,5.10
2018-08-28T10:33:56.477Z,5.63
2018-08-28T10:36:24.052Z,5.77
2018-08-28T10:38:51.670Z,4.83
2018-08-28T10:41:19.215Z,6.20
2018-08-28T10:43:46.845Z,5.07
2018-08-28T10:46:14.468Z,5.30
2018-08-28T10:48:42.023Z,4.63
2018-08-28T10:51:09.560Z,5.27
2018-08-28T10:53:37.122Z,5.10
2018-08-28T10:56:04.847Z,5.60
2018-08-28T10:58:32.550Z,5.43
2018-08-28T11:01:00.071Z,5.30
2018-08-28T11:03:27.666Z,5.50
2018-08-28T11:05:55.242Z,5.57
2018-08-28T11:08:22.794Z,5.67
2018-08-28T11:10:50.303Z,6.10
2018-08-28T11:13:17.864Z,4.90
2018-08-28T11:15:45.463Z,5.73
2018-08-28T11:18:13.010Z,5.67
2018-08-28T11:20:40.594Z,6.13
2018-08-28T11:23:08.920Z,6.33
2018-08-28T11:25:36.491Z,5.80
2018-08-28T11:28:04.056Z,6.20
2018-08-28T11:30:31.990Z,6.07
2018-08-28T11:32:59.607Z,5.20
2018-08-28T11:35:27.176Z,5.40
2018-08-28T11:37:54.750Z,5.40
2018-08-28T11:40:22.318Z,5.23
2018-08-28T11:42:49.912Z,5.53
2018-08-28T11:45:17.520Z,5.10
2018-08-28T11:47:45.039Z,6.33
2018-08-28T11:50:12.648Z,4.83
2018-08-28T11:52:40.253Z,5.50
2018-08-28T11:55:07.874Z,6.30
2018-08-28T11:57:35.431Z,5.40
2018-08-28T12:00:03.248Z,6.70
2018-08-28T12:02:30.796Z,5.40
2018-08-28T12:04:58.422Z,6.30
2018-08-28T12:07:26.022Z,5.47
2018-08-28T12:09:53.571Z,5.27
2018-08-28T12:12:21.269Z,5.10
2018-08-28T12:14:48.806Z,6.80
2018-08-28T12:17:16.369Z,5.40
2018-08-28T12:19:43.938Z,4.57
2018-08-28T12:22:11.838Z,5.10
2018-08-28T12:24:39.460Z,6.30
2018-08-28T12:27:07.044Z,6.10
2018-08-28T12:29:34.625Z,5.33
2018-08-28T12:32:02.278Z,5.50
2018-08-28T12:34:29.834Z,6.20
2018-08-28T12:36:57.473Z,5.60
2018-08-28T12:39:24.938Z,6.50
2018-08-28T12:41:52.472Z,4.50
2018-08-28T12:44:20.054Z,4.57
2018-08-28T12:46:47.615Z,5.50
2018-08-28T12:49:15.182Z,5.70
2018-08-28T12:51:42.798Z,5.90
2018-08-28T12:54:10.311Z,5.00
2018-08-28T12:56:37.894Z,5.10
2018-08-28T12:59:05.507Z,5.70
2018-08-28T13:01:33.069Z,5.70
2018-08-28T13:04:00.783Z,5.53
2018-08-28T13:06:28.557Z,5.03
2018-08-28T13:08:56.533Z,5.93
2018-08-28T13:11:24.465Z,4.40
2018-08-28T13:13:52.021Z,5.30
2018-08-28T13:16:19.579Z,4.80
2018-08-28T13:18:47.104Z,5.67
2018-08-28T13:21:14.651Z,5.60
2018-08-28T13:23:42.256Z,5.17
2018-08-28T13:26:10.050Z,6.13
2018-08-28T13:28:37.492Z,5.10
2018-08-28T13:31:05.217Z,5.20
2018-08-28T13:33:32.786Z,5.60
2018-08-28T13:36:00.343Z,5.57
2018-08-28T13:38:27.926Z,5.13
2018-08-28T13:40:55.489Z,4.93
2018-08-28T13:43:23.098Z,6.10
2018-08-28T13:45:50.664Z,5.23
2018-08-28T13:48:18.320Z,5.17
2018-08-28T13:50:45.873Z,5.30
2018-08-28T13:53:13.390Z,5.57
2018-08-28T13:55:41.040Z,5.40
2018-08-28T13:58:08.634Z,5.60
2018-08-28T14:00:36.167Z,5.57
2018-08-28T14:03:03.750Z,5.23
2018-08-28T14:05:31.385Z,5.80
2018-08-28T14:07:58.922Z,5.37
2018-08-28T14:10:26.524Z,5.40
2018-08-28T14:12:54.090Z,5.90
2018-08-28T14:15:21.651Z,5.43
2018-08-28T14:17:49.208Z,4.70
2018-08-28T14:20:16.749Z,5.47
2018-08-28T14:22:44.413Z,5.53
2018-08-28T14:25:11.913Z,5.77
2018-08-28T14:27:39.524Z,5.40
2018-08-28T14:30:07.176Z,4.93
2018-08-28T14:32:34.704Z,5.97
2018-08-28T14:35:02.290Z,4.73
2018-08-28T14:37:29.824Z,5.53
2018-08-28T14:39:57.390Z,5.50
2018-08-28T14:42:24.985Z,6.20
2018-08-28T14:44:52.588Z,5.77
2018-08-28T14:47:20.210Z,5.73
2018-08-28T14:49:47.901Z,5.50
2018-08-28T14:52:15.324Z,8.33
2018-08-28T14:54:42.923Z,5.30
2018-08-28T14:57:10.443Z,5.20
2018-08-28T14:59:38.057Z,6.13
2018-08-28T15:02:05.663Z,5.23
2018-08-28T15:04:33.256Z,5.90
2018-08-28T15:07:00.870Z,5.90
2018-08-28T15:09:28.410Z,5.80
2018-08-28T15:11:55.957Z,5.20
2018-08-28T15:14:23.493Z,5.63
2018-08-28T15:16:51.080Z,5.57
2018-08-28T15:19:18.690Z,6.37
2018-08-28T15:21:46.298Z,6.00
2018-08-28T15:24:13.798Z,5.30
2018-08-28T15:26:41.424Z,6.03
2018-08-28T15:29:08.980Z,5.50
2018-08-28T15:31:36.548Z,5.77
2018-08-28T15:34:04.140Z,6.33
2018-08-28T15:36:31.718Z,6.00
2018-08-28T15:38:59.330Z,6.13
2018-08-28T15:41:26.884Z,5.90
2018-08-28T15:43:54.463Z,5.93
2018-08-28T15:46:22.014Z,5.67
2018-08-28T15:48:49.600Z,6.43
2018-08-28T15:51:17.205Z,6.60
2018-08-28T15:53:44.742Z,6.47
2018-08-28T15:56:12.304Z,6.57
2018-08-28T15:58:39.896Z,6.57
2018-08-28T16:01:07.492Z,6.97
2018-08-28T16:03:35.019Z,5.70
2018-08-28T16:06:02.572Z,5.97
2018-08-28T16:08:30.122Z,6.33
2018-08-28T16:10:57.744Z,6.23
2018-08-28T16:13:25.310Z,6.13
2018-08-28T16:15:52.961Z,6.67
2018-08-28T16:18:20.556Z,6.37
2018-08-28T16:20:48.108Z,6.20
2018-08-28T16:23:21.322Z,6.53
2018-08-28T16:25:48.947Z,5.30
2018-08-28T16:28:16.530Z,5.60
2018-08-28T16:30:44.137Z,6.20
2018-08-28T16:33:11.714Z,6.73
2018-08-28T16:35:39.434Z,5.80
2018-08-28T16:38:07.046Z,6.07
2018-08-28T16:40:34.596Z,5.63
2018-08-28T16:43:02.250Z,6.50
2018-08-28T16:45:29.912Z,5.73
2018-08-28T16:47:57.468Z,6.80
2018-08-28T16:50:25.010Z,6.63
2018-08-28T16:52:52.572Z,6.23
2018-08-28T16:55:20.098Z,7.20
2018-08-28T16:57:47.660Z,7.57
2018-08-28T17:00:15.234Z,6.37
2018-08-28T17:02:42.828Z,6.37
2018-08-28T17:05:10.434Z,6.43
2018-08-28T17:07:38.310Z,7.10
2018-08-28T17:10:06.020Z,6.40
2018-08-28T17:12:33.601Z,7.97
2018-08-28T17:15:01.274Z,6.37
2018-08-28T17:17:28.742Z,6.67
2018-08-28T17:19:56.336Z,6.33
2018-08-28T17:22:23.883Z,7.80
2018-08-28T17:24:51.482Z,6.83
2018-08-28T17:27:19.097Z,6.93
2018-08-28T17:29:46.714Z,6.20
2018-08-28T17:32:14.299Z,6.23
2018-08-28T17:34:41.965Z,6.07
2018-08-28T17:37:09.655Z,6.60
2018-08-28T17:39:37.269Z,5.80
2018-08-28T17:42:04.978Z,7.03
2018-08-28T17:44:32.591Z,5.60
2018-08-28T17:47:00.245Z,6.43
2018-08-28T17:49:27.866Z,6.70
2018-08-28T17:51:55.471Z,6.87
2018-08-28T17:54:23.308Z,6.50
2018-08-28T17:56:50.961Z,7.07
2018-08-28T17:59:18.563Z,5.87
2018-08-28T18:01:46.224Z,7.83
2018-08-28T18:04:13.884Z,7.10
2018-08-28T18:06:41.509Z,6.50
2018-08-28T18:09:09.721Z,5.97
2018-08-28T18:11:37.399Z,7.07
2018-08-28T18:14:05.021Z,6.93
2018-08-28T18:16:32.811Z,7.90
2018-08-28T18:19:00.562Z,8.83
2018-08-28T18:21:28.308Z,8.50
2018-08-28T18:23:55.902Z,7.60
2018-08-28T18:26:23.628Z,7.40
2018-08-28T18:28:51.254Z,7.23
2018-08-28T18:31:18.881Z,7.03
2018-08-28T18:33:46.509Z,6.63
2018-08-28T18:36:14.121Z,6.83
2018-08-28T18:38:41.775Z,6.97
2018-08-28T18:41:09.588Z,7.73
2018-08-28T18:43:37.087Z,7.53
2018-08-28T18:46:04.778Z,8.03
2018-08-28T18:48:32.508Z,7.67
2018-08-28T18:51:00.119Z,7.50
2018-08-28T18:53:27.961Z,7.10
2018-08-28T18:55:55.770Z,8.37
2018-08-28T18:58:24.408Z,7.20
2018-08-28T19:00:52.900Z,7.60
2018-08-28T19:03:20.592Z,8.70
2018-08-28T19:05:48.894Z,7.60
2018-08-28T19:08:16.585Z,7.40
2018-08-28T19:10:44.320Z,7.70
2018-08-28T19:13:11.993Z,7.23
2018-08-28T19:15:40.064Z,6.97
2018-08-28T19:18:08.066Z,7.10
2018-08-28T19:20:35.885Z,8.00
2018-08-28T19:23:03.559Z,7.70
2018-08-28T19:25:31.219Z,7.87
2018-08-28T19:27:58.924Z,7.27
2018-08-28T19:30:26.620Z,7.90
2018-08-28T19:32:54.277Z,8.20
2018-08-28T19:35:22.019Z,7.00
2018-08-28T19:37:49.946Z,7.87
2018-08-28T19:40:17.661Z,7.67
2018-08-28T19:42:45.432Z,9.17
2018-08-28T19:45:13.120Z,7.43
2018-08-28T19:47:40.775Z,7.77
2018-08-28T19:50:08.545Z,7.40
2018-08-28T19:52:36.224Z,6.80
2018-08-28T19:55:04.087Z,8.63
2018-08-28T19:57:31.772Z,8.23
2018-08-28T19:59:59.510Z,7.47
2018-08-28T20:02:27.353Z,8.50
2018-08-28T20:04:55.021Z,8.57
2018-08-28T20:07:23.042Z,8.17
2018-08-28T20:09:50.999Z,8.70
2018-08-28T20:12:18.667Z,9.40
2018-08-28T20:14:46.349Z,7.70
2018-08-28T20:17:14.014Z,8.40
2018-08-28T20:19:41.636Z,7.50
2018-08-28T20:22:10.440Z,8.67
2018-08-28T20:24:38.096Z,7.63
2018-08-28T20:27:05.931Z,8.20
2018-08-28T20:29:33.592Z,7.80
2018-08-28T20:32:01.268Z,8.60
2018-08-28T20:34:28.952Z,9.63
2018-08-28T20:36:56.603Z,7.87
2018-08-28T20:39:24.239Z,8.67
2018-08-28T20:41:51.927Z,7.77
2018-08-28T20:44:19.494Z,8.90
2018-08-28T20:46:47.163Z,9.13
2018-08-28T20:49:14.736Z,8.00
2018-08-28T20:51:42.333Z,8.13
2018-08-28T20:54:09.945Z,7.80
2018-08-28T20:56:37.871Z,8.63
2018-08-28T20:59:05.718Z,8.07
2018-08-28T21:01:33.405Z,7.40
2018-08-28T21:04:01.043Z,8.70
2018-08-28T21:06:28.750Z,7.73
2018-08-28T21:08:56.335Z,8.63
2018-08-28T21:11:24.010Z,9.00
2018-08-28T21:13:51.621Z,8.83
2018-08-28T21:16:19.214Z,8.30
2018-08-28T21:18:46.823Z,8.63
2018-08-28T21:21:14.464Z,9.17
2018-08-28T21:23:42.064Z,7.93
2018-08-28T21:26:09.694Z,9.50
2018-08-28T21:28:37.264Z,9.30
2018-08-28T21:31:04.860Z,7.50
2018-08-28T21:33:32.440Z,8.50
2018-08-28T21:36:00.008Z,9.10
2018-08-28T21:38:27.554Z,8.03
2018-08-28T21:40:55.105Z,8.17
2018-08-28T21:43:22.617Z,8.97
2018-08-28T21:45:50.207Z,9.80
2018-08-28T21:48:17.792Z,10.07
2018-08-28T21:50:45.353Z,8.80
2018-08-28T21:53:12.889Z,10.37
2018-08-28T21:55:40.481Z,10.00
2018-08-28T21:58:08.057Z,8.97
2018-08-28T22:00:35.623Z,10.40
2018-08-28T22:03:03.235Z,10.30
2018-08-28T22:05:31.530Z,9.17
2018-08-28T22:07:59.089Z,9.10
2018-08-28T22:10:26.877Z,8.47
2018-08-28T22:12:54.475Z,9.03
2018-08-28T22:15:22.052Z,8.93
2018-08-28T22:17:49.616Z,7.50
2018-08-28T22:20:17.197Z,8.83
2018-08-28T22:22:44.770Z,9.97
2018-08-28T22:25:12.324Z,9.50
2018-08-28T22:27:39.905Z,8.77
2018-08-28T22:30:08.132Z,8.23
2018-08-28T22:32:35.661Z,8.10
2018-08-28T22:35:03.202Z,7.83
2018-08-28T22:37:30.803Z,8.67
2018-08-28T22:39:58.340Z,8.70
2018-08-28T22:42:25.897Z,8.77
2018-08-28T22:44:53.421Z,8.37
2018-08-28T22:47:20.961Z,8.50
2018-08-28T22:49:48.505Z,10.17
2018-08-28T22:52:16.087Z,9.80
2018-08-28T22:54:43.679Z,9.63
2018-08-28T22:57:11.191Z,8.87
2018-08-28T22:59:38.754Z,8.90
2018-08-28T23:02:06.295Z,9.53
2018-08-28T23:04:33.873Z,8.50
2018-08-28T23:07:01.454Z,10.07
2018-08-28T23:09:28.997Z,8.77
2018-08-28T23:11:56.520Z,10.40
2018-08-28T23:14:24.048Z,8.73
2018-08-28T23:16:51.618Z,9.67
2018-08-28T23:19:19.171Z,9.90
2018-08-28T23:21:46.918Z,9.73
2018-08-28T23:24:14.455Z,8.97
2018-08-28T23:26:42.014Z,10.27
2018-08-28T23:29:09.569Z,10.93
2018-08-28T23:31:37.081Z,10.20
2018-08-28T23:34:04.599Z,8.97
2018-08-28T23:36:32.134Z,9.93
2018-08-28T23:38:59.687Z,8.80
2018-08-28T23:41:27.249Z,8.80
2018-08-28T23:43:54.841Z,9.37
2018-08-28T23:46:22.382Z,9.43
2018-08-28T23:48:49.954Z,8.50
2018-08-28T23:51:17.549Z,9.10
2018-08-28T23:53:45.103Z,8.97
2018-08-28T23:56:12.647Z,8.20
2018-08-28T23:58:40.257Z,10.00
